Gwynedd, United Kingdom
Current Conditions -  °F | °C
As of 10:50 PM on Sunday 21 Dec 2014 (Local Time) from EGOV Reporting Station
Haze Haze  
Wind Chill: 52°   Ceiling: 3300
Heat Index: 52°   Visibility: 4mi
Dew Point: 50°   Wind: 28mph
Humidity: 94%   Direction: 210°SSW
Pressure: 29.94"   Gusts: NA
Location:  52.8°N, 4°W
Report Text: EGOV 212250Z AUTO 21024KT 7000 HZ FEW007/// BKN033/// BKN200/// 11/10 Q1014
Loading
Personal Weather Stations






























Interactive Weather Map New forecast layout! Learn more

10-Day Weather Forecast

Advertisements
Track Severe Weather on mobile